Data for 10/11/2009

Time Sea-Level Adjusted Pressure Absolute Pressure Temperature Relative Humidity Dew Point   
(mb) (inHg) (mb) (inHg) (C) (F) (%) (C) (F)
00:05 1019 30.09 848 25.04 -11 12.2 74 -14.8 5.3
00:10 1019 30.09 848 25.04 -11.1 12.1 74 -14.9 5.2
00:15 1019 30.09 848 25.04 -11.2 11.9 73 -15.1 4.8
00:20 1019 30.09 848 25.04 -11.1 11.9 72 -15.2 4.7
00:25 1019 30.09 848 25.04 -11.1 12.1 72 -15.2 4.7
00:30 1019 30.09 848 25.04 -11 12.2 72 -15.1 4.8
00:35 1019 30.09 848 25.04 -10.9 12.3 72 -15.1 4.9
00:40 1019 30.09 848 25.04 -11 12.3 71 -15.2 4.7
00:45 1019 30.09 848 25.04 -11 12.3 71 -15.2 4.7
00:50 1019 30.09 848 25.04 -11 12.2 71 -15.3 4.4
00:55 1019 30.09 848 25.04 -11.1 12.1 72 -15.2 4.6
01:00 1019 30.09 848 25.04 -11.1 12.1 71 -15.3 4.4
01:05 1019 30.09 848 25.04 -11 12.3 71 -15.2 4.7
01:10 1019 30.09 848 25.04 -10.9 12.3 71 -15.2 4.6
01:15 1019 30.09 848 25.04 -11 12.3 71 -15.3 4.5
01:20 1019 30.09 848 25.04 -10.9 12.3 70 -15.3 4.4
01:25 1019 30.09 848 25.04 -10.9 12.3 70 -15.3 4.4
01:30 1019 30.09 848 25.04 -11 12.2 71 -15.3 4.4
01:35 1019 30.09 848 25.04 -11 12.2 71 -15.2 4.6
01:40 1019 30.09 848 25.04 -11 12.2 71 -15.3 4.5
01:45 1019 30.09 848 25.04 -11 12.2 71 -15.2 4.6
01:50 1018 30.06 848 25.04 -11 12.2 71 -15.2 4.6
01:55 1018 30.06 848 25.04 -11 12.2 72 -15.2 4.7
02:00 1018 30.06 848 25.04 -10.9 12.3 72 -15.1 4.9
02:05 1018 30.06 848 25.04 -10.9 12.4 72 -15 5
02:10 1018 30.06 847 25.01 -10.8 12.6 71 -15 5
02:15 1018 30.06 847 25.01 -10.7 12.8 72 -14.9 5.2
02:20 1018 30.06 847 25.01 -10.7 12.8 72 -14.8 5.4
02:25 1018 30.06 847 25.01 -10.7 12.8 73 -14.6 5.7
02:30 1018 30.06 847 25.01 -10.7 12.8 73 -14.6 5.7
02:35 1018 30.06 847 25.01 -10.6 12.8 73 -14.5 5.9
02:40 1018 30.06 847 25.01 -10.6 12.9 74 -14.5 6
02:45 1018 30.06 847 25.01 -10.7 12.8 73 -14.6 5.8
02:50 1018 30.06 847 25.01 -10.7 12.8 73 -14.5 5.8
02:55 1018 30.06 847 25.01 -10.7 12.8 74 -14.5 5.8
03:00 1018 30.06 847 25.01 -10.6 12.8 73 -14.6 5.8
03:05 1018 30.06 847 25.01 -10.6 13 73 -14.5 5.9
03:10 1018 30.06 847 25.01 -10.6 13 73 -14.5 5.9
03:15 1018 30.06 847 25.01 -10.6 12.9 74 -14.4 6.2
03:20 1018 30.06 847 25.01 -10.7 12.8 75 -14.2 6.4
03:25 1018 30.06 847 25.01 -10.7 12.8 76 -14.1 6.6
03:30 1018 30.06 847 25.01 -10.7 12.7 77 -14 6.8
03:35 1017 30.03 847 25.01 -10.7 12.7 77 -14.1 6.6
03:40 1017 30.03 847 25.01 -10.7 12.7 76 -14.1 6.6
03:45 1017 30.03 846 24.98 -10.7 12.7 77 -14.1 6.6
03:50 1017 30.03 846 24.98 -10.8 12.6 78 -13.9 7
03:55 1017 30.03 846 24.98 -10.8 12.6 78 -13.9 6.9
04:00 1017 30.03 846 24.98 -10.7 12.7 77 -14 6.7
04:05 1017 30.03 846 24.98 -10.7 12.8 77 -13.9 7
04:10 1017 30.03 846 24.98 -10.7 12.8 77 -13.9 7
04:15 1017 30.03 846 24.98 -10.6 12.8 77 -14 6.9
04:20 1017 30.03 846 24.98 -10.6 12.9 77 -14 6.9
04:25 1017 30.03 846 24.98 -10.6 12.9 77 -13.9 6.9
04:30 1017 30.03 846 24.98 -10.6 13 76 -14 6.8
04:35 1017 30.03 846 24.98 -10.6 13 76 -14 6.8
04:40 1017 30.03 846 24.98 -10.5 13 76 -14.1 6.7
04:45 1017 30.03 846 24.98 -10.6 13 76 -14 6.9
04:50 1017 30.03 846 24.98 -10.5 13.1 76 -14 6.8
04:55 1017 30.03 846 24.98 -10.6 13 76 -14 6.9
05:00 1017 30.03 846 24.98 -10.6 13 76 -14 6.9
05:05 1017 30.03 846 24.98 -10.6 12.9 76 -14 6.8
05:10 1017 30.03 846 24.98 -10.6 13 76 -14.1 6.7
05:15 1017 30.03 846 24.98 -10.6 13 77 -13.9 7
05:20 1017 30.03 846 24.98 -10.6 13 77 -13.8 7.1
05:25 1017 30.03 846 24.98 -10.6 13 77 -13.8 7.2
05:30 1017 30.03 846 24.98 -10.6 13 77 -13.8 7.2
05:35 1017 30.03 846 24.98 -10.6 13 77 -13.8 7.1
05:40 1016 30 846 24.98 -10.6 13 77 -13.8 7.1
05:45 1016 30 846 24.98 -10.6 12.9 77 -13.9 7
05:50 1016 30 846 24.98 -10.6 12.9 77 -13.9 7
05:55 1016 30 845 24.95 -10.6 12.9 77 -13.9 7
06:00 1016 30 845 24.95 -10.6 12.9 78 -13.7 7.3
06:05 1016 30 845 24.95 -10.7 12.8 78 -13.8 7.2
06:10 1016 30 845 24.95 -10.7 12.8 77 -14 6.9
06:15 1016 30 845 24.95 -10.7 12.8 77 -14 6.8
06:20 1016 30 845 24.95 -10.6 12.9 77 -14 6.9
06:25 1016 30 845 24.95 -10.6 12.9 77 -13.9 7
06:30 1016 30 845 24.95 -10.6 13 76 -14 6.8
06:35 1016 30 845 24.95 -10.6 13 76 -14.1 6.7
06:40 1016 30 845 24.95 -10.6 13 76 -14 6.8
06:45 1016 30 845 24.95 -10.5 13 75 -14.2 6.5
06:50 1016 30 845 24.95 -10.5 13.2 72 -14.6 5.7
06:55 1016 30 845 24.95 -10.4 13.2 72 -14.6 5.7
07:00 1016 30 845 24.95 -10.4 13.3 72 -14.5 5.8
07:05 1016 30 845 24.95 -10.4 13.3 73 -14.4 6.1
07:10 1016 30 845 24.95 -10.4 13.3 73 -14.4 6.2
07:15 1016 30 845 24.95 -10.4 13.3 74 -14.2 6.4
07:20 1016 30 845 24.95 -10.4 13.3 75 -14 6.7
07:25 1016 30 845 24.95 -10.5 13.2 81 -13.1 8.3
07:30 1016 30 845 24.95 -10.6 12.9 82 -13.1 8.4
07:35 1016 30 845 24.95 -10.7 12.8 83 -13.1 8.5
07:40 1016 30 845 24.95 -10.7 12.8 83 -13.1 8.5
07:45 1016 30 845 24.95 -10.7 12.8 83 -13 8.5
07:50 1016 30 845 24.95 -10.6 12.9 82 -13.1 8.4
07:55 1016 30 845 24.95 -10.6 13 82 -13.1 8.5
08:00 1016 30 845 24.95 -10.5 13 80 -13.3 8.1
08:05 1015 29.97 845 24.95 -10.5 13.1 81 -13.2 8.3
08:10 1015 29.97 845 24.95 -10.5 13.1 82 -13 8.7
08:15 1016 30 845 24.95 -10.5 13.1 83 -12.9 8.8
08:20 1016 30 845 24.95 -10.4 13.2 82 -12.9 8.8
08:25 1016 30 845 24.95 -10.4 13.3 83 -12.7 9.1
08:30 1016 30 845 24.95 -10.4 13.3 84 -12.6 9.3
08:35 1016 30 845 24.95 -10.4 13.2 85 -12.5 9.5
08:40 1016 30 845 24.95 -10.5 13.1 86 -12.5 9.6
08:45 1016 30 845 24.95 -10.5 13.2 85 -12.5 9.5
08:50 1016 30 845 24.95 -10.4 13.3 85 -12.4 9.7
08:55 1016 30 845 24.95 -10.3 13.4 85 -12.4 9.7
09:00 1016 30 845 24.95 -10.4 13.4 85 -12.4 9.7
09:05 1016 30 845 24.95 -10.4 13.4 85 -12.4 9.6
09:10 1016 30 845 24.95 -10.3 13.4 85 -12.4 9.7
09:15 1016 30 845 24.95 -10.4 13.4 83 -12.7 9.2
09:20 1016 30 845 24.95 -10.3 13.4 84 -12.5 9.4
09:25 1016 30 845 24.95 -10.2 13.6 83 -12.6 9.3
09:30 1016 30 845 24.95 -10.1 13.8 81 -12.7 9.1
09:35 1016 30 845 24.95 -9.9 14.1 80 -12.7 9.1
09:40 1016 30 845 24.95 -9.8 14.3 79 -12.9 8.9
09:45 1016 30 845 24.95 -9.8 14.4 78 -12.9 8.8
09:50 1016 30 845 24.95 -9.7 14.5 77 -13 8.7
09:55 1016 30 845 24.95 -9.7 14.5 77 -13.1 8.4
10:00 1016 30 845 24.95 -9.6 14.7 76 -13.1 8.4
10:05 1016 30 845 24.95 -9.5 15 75 -13.1 8.4
10:10 1016 30 845 24.95 -9.4 15.2 77 -12.7 9.1
10:15 1016 30 845 24.95 -9.4 15.1 75 -13.1 8.4
10:20 1016 30 845 24.95 -9.5 14.9 75 -13.1 8.4
10:25 1016 30 845 24.95 -9.5 15 74 -13.2 8.2
10:30 1016 30 845 24.95 -9.5 15 74 -13.3 8.1
10:35 1016 30 845 24.95 -9.4 15.1 72 -13.5 7.6
10:40 1016 30 845 24.95 -9.4 15.1 70 -14 6.9
10:45 1016 30 845 24.95 -9.3 15.2 70 -13.9 7
10:50 1016 30 845 24.95 -9.5 15 71 -13.8 7.2
10:55 1016 30 845 24.95 -9.4 15.1 69 -14 6.8
11:00 1016 30 845 24.95 -9.3 15.2 68 -14.2 6.5
11:05 1016 30 845 24.95 -9.3 15.2 71 -13.7 7.4
11:10 1016 30 845 24.95 -9.2 15.5 69 -13.8 7.1
11:15 1016 30 845 24.95 -9.1 15.5 66 -14.3 6.2
11:20 1016 30 845 24.95 -9.2 15.5 68 -14.1 6.6
11:25 1016 30 845 24.95 -9.2 15.5 67 -14.2 6.4
11:30 1016 30 845 24.95 -9.1 15.6 68 -13.9 7
11:35 1016 30 845 24.95 -8.7 16.3 66 -13.9 6.9
11:40 1016 30 845 24.95 -8.7 16.4 63 -14.5 6
11:45 1015 29.97 845 24.95 -8.4 16.9 60 -14.9 5.3
11:50 1015 29.97 845 24.95 -8.2 17.2 60 -14.7 5.5
11:55 1015 29.97 845 24.95 -8.2 17.2 61 -14.4 6.1
12:00 1015 29.97 845 24.95 -8.2 17.2 59 -14.8 5.3
12:05 1015 29.97 845 24.95 -8.4 16.8 63 -14.3 6.3
12:10 1015 29.97 845 24.95 -8.6 16.6 63 -14.4 6.1
12:15 1015 29.97 844 24.92 -8.3 17 60 -14.7 5.5
12:20 1015 29.97 844 24.92 -8.3 17 62 -14.4 6
12:25 1015 29.97 844 24.92 -8.3 17.1 61 -14.5 6
12:30 1015 29.97 844 24.92 -7.9 17.7 60 -14.3 6.2
12:35 1015 29.97 844 24.92 -7.3 18.9 56 -14.6 5.7
12:40 1015 29.97 844 24.92 -7.6 18.4 60 -14.1 6.6
12:45 1015 29.97 844 24.92 -7.9 17.7 60 -14.5 6
12:50 1015 29.97 844 24.92 -7.8 18 60 -14.2 6.4
12:55 1015 29.97 844 24.92 -7.8 18 59 -14.5 5.9
13:00 1015 29.97 844 24.92 -7.6 18.3 59 -14.3 6.2
13:05 1015 29.97 844 24.92 -7.5 18.6 57 -14.6 5.7
13:10 1015 29.97 844 24.92 -7.5 18.5 58 -14.5 5.9
13:15 1015 29.97 844 24.92 -7.5 18.5 60 -14 6.8
13:20 1015 29.97 844 24.92 -7.4 18.7 61 -13.7 7.3
13:25 1015 29.97 844 24.92 -7.5 18.5 56 -14.8 5.4
13:30 1015 29.97 844 24.92 -7.8 18.1 56 -15 5
13:35 1015 29.97 844 24.92 -7.7 18.1 61 -14 6.8
13:40 1015 29.97 844 24.92 -7.6 18.3 60 -14 6.7
13:45 1015 29.97 844 24.92 -7.5 18.5 59 -14.1 6.6
13:50 1015 29.97 844 24.92 -7.1 19.2 60 -13.7 7.3
13:55 1015 29.97 844 24.92 -7.1 19.2 58 -14 6.9
14:00 1015 29.97 844 24.92 -6.4 20.4 58 -13.4 7.9
14:05 1015 29.97 844 24.92 -6.5 20.3 59 -13.4 7.9
14:10 1015 29.97 844 24.92 -6.7 19.9 59 -13.4 7.8
14:15 1015 29.97 844 24.92 -6.5 20.3 58 -13.5 7.7
14:20 1015 29.97 844 24.92 -7.1 19.3 58 -14 6.7
14:25 1015 29.97 844 24.92 -7 19.4 59 -13.7 7.3
14:30 1015 29.97 844 24.92 -6.9 19.7 60 -13.3 8
14:35 1015 29.97 844 24.92 -6.8 19.8 58 -13.8 7.1
14:40 1015 29.97 844 24.92 -6.9 19.6 56 -14.2 6.4
14:45 1015 29.97 844 24.92 -6.9 19.5 55 -14.6 5.8
14:50 1015 29.97 844 24.92 -7 19.5 54 -14.8 5.4
14:55 1015 29.97 844 24.92 -6.9 19.5 57 -14.1 6.5
15:00 1015 29.97 844 24.92 -6.4 20.5 57 -13.6 7.5
15:05 1015 29.97 844 24.92 -6.1 21 53 -14.3 6.3
15:10 1015 29.97 844 24.92 -6.3 20.6 53 -14.4 6
15:15 1015 29.97 844 24.92 -6.4 20.5 54 -14.3 6.2
15:20 1015 29.97 844 24.92 -6.3 20.7 54 -14.1 6.7
15:25 1015 29.97 844 24.92 -6.1 21.1 53 -14.2 6.5
15:30 1015 29.97 844 24.92 -6.4 20.5 53 -14.5 5.9
15:35 1015 29.97 844 24.92 -5.8 21.6 51 -14.5 5.9
15:40 1015 29.97 844 24.92 -5.9 21.3 54 -13.8 7.1
15:45 1015 29.97 844 24.92 -6.3 20.7 52 -14.6 5.7
15:50 1015 29.97 844 24.92 -6 21.3 53 -14 6.7
15:55 1015 29.97 844 24.92 -6.3 20.6 54 -14.1 6.6
16:00 1015 29.97 844 24.92 -6.4 20.5 55 -14 6.8
16:05 1015 29.97 844 24.92 -6.3 20.7 53 -14.3 6.2
16:10 1015 29.97 844 24.92 -6.3 20.6 56 -13.8 7.2
16:15 1015 29.97 844 24.92 -5.9 21.3 55 -13.5 7.6
16:20 1015 29.97 844 24.92 -6.3 20.7 55 -14 6.9
16:25 1015 29.97 844 24.92 -6.2 20.8 55 -14 6.9
16:30 1015 29.97 844 24.92 -6.1 20.9 56 -13.6 7.5
16:35 1015 29.97 844 24.92 -6.3 20.7 56 -13.7 7.3
16:40 1015 29.97 844 24.92 -6.3 20.6 57 -13.6 7.5
16:45 1015 29.97 844 24.92 -6.5 20.3 56 -13.9 7.1
16:50 1015 29.97 844 24.92 -6.4 20.5 56 -13.8 7.2
16:55 1015 29.97 844 24.92 -6.6 20.1 57 -13.8 7.1
17:00 1015 29.97 844 24.92 -6.7 20 57 -13.9 7
17:05 1015 29.97 844 24.92 -6.4 20.4 56 -13.8 7.1
17:10 1015 29.97 844 24.92 -6.6 20.2 57 -13.7 7.4
17:15 1015 29.97 844 24.92 -6.9 19.6 59 -13.7 7.3
17:20 1015 29.97 844 24.92 -7 19.5 61 -13.3 8
17:25 1015 29.97 844 24.92 -7.2 19.1 60 -13.7 7.3
17:30 1015 29.97 844 24.92 -7.2 19 59 -14 6.8
17:35 1015 29.97 844 24.92 -7.3 18.8 59 -13.9 6.9
17:40 1015 29.97 844 24.92 -7.4 18.7 61 -13.7 7.4
17:45 1015 29.97 844 24.92 -7.4 18.7 61 -13.7 7.3
17:50 1015 29.97 844 24.92 -7.5 18.6 62 -13.5 7.7
17:55 1015 29.97 844 24.92 -7.6 18.3 63 -13.5 7.7
18:00 1015 29.97 844 24.92 -7.7 18.2 64 -13.4 7.9
18:05 1015 29.97 844 24.92 -7.8 18 64 -13.4 7.8
18:10 1015 29.97 844 24.92 -7.8 17.9 65 -13.4 7.9
18:15 1015 29.97 844 24.92 -7.9 17.8 64 -13.6 7.5
18:20 1015 29.97 844 24.92 -8.1 17.4 65 -13.6 7.6
18:25 1015 29.97 844 24.92 -8.3 17.2 67 -13.4 7.8
18:30 1015 29.97 844 24.92 -8.4 16.8 68 -13.4 8
18:35 1015 29.97 844 24.92 -8.6 16.5 69 -13.3 8
18:40 1015 29.97 844 24.92 -8.7 16.3 70 -13.2 8.3
18:45 1015 29.97 844 24.92 -8.8 16.1 71 -13.2 8.2
18:50 1015 29.97 844 24.92 -9 15.9 70 -13.4 7.8
18:55 1015 29.97 844 24.92 -9.1 15.7 71 -13.5 7.8
19:00 1015 29.97 844 24.92 -9.2 15.5 72 -13.4 7.9
19:05 1015 29.97 844 24.92 -9.3 15.3 72 -13.4 7.9
19:10 1015 29.97 844 24.92 -9.3 15.2 73 -13.4 8
19:15 1015 29.97 844 24.92 -9.4 15 73 -13.3 8
19:20 1015 29.97 844 24.92 -9.5 14.8 74 -13.4 7.9
19:25 1015 29.97 844 24.92 -9.7 14.6 74 -13.4 7.8
19:30 1015 29.97 844 24.92 -9.7 14.6 75 -13.4 7.9
19:35 1015 29.97 844 24.92 -9.7 14.5 76 -13.3 8.1
19:40 1015 29.97 844 24.92 -9.7 14.6 75 -13.3 8.1
19:45 1015 29.97 844 24.92 -9.6 14.6 75 -13.3 8.1
19:50 1015 29.97 844 24.92 -9.7 14.5 76 -13.2 8.2
19:55 1015 29.97 844 24.92 -9.8 14.4 76 -13.2 8.2
20:00 1015 29.97 844 24.92 -9.8 14.3 77 -13.2 8.2
20:05 1015 29.97 844 24.92 -9.9 14.3 77 -13.1 8.4
20:10 1015 29.97 844 24.92 -9.9 14.3 77 -13.1 8.4
20:15 1015 29.97 844 24.92 -9.9 14.2 78 -13.1 8.4
20:20 1015 29.97 844 24.92 -9.9 14.1 78 -13.1 8.4
20:25 1015 29.97 844 24.92 -9.9 14.1 78 -13 8.5
20:30 1015 29.97 844 24.92 -10 14 79 -13.1 8.5
20:35 1015 29.97 844 24.92 -10 14 79 -13 8.6
20:40 1015 29.97 844 24.92 -10 14 79 -12.9 8.7
20:45 1015 29.97 844 24.92 -10 14.1 80 -12.9 8.8
20:50 1015 29.97 844 24.92 -10 14 79 -13 8.6
20:55 1015 29.97 844 24.92 -10 14 79 -13.1 8.5
21:00 1015 29.97 844 24.92 -10 13.9 79 -13 8.6
21:05 1015 29.97 844 24.92 -10 13.9 79 -13 8.6
21:10 1015 29.97 844 24.92 -10 13.9 79 -13.1 8.5
21:15 1015 29.97 844 24.92 -10.1 13.9 78 -13.2 8.3
21:20 1015 29.97 844 24.92 -10.1 13.8 78 -13.2 8.3
21:25 1015 29.97 844 24.92 -10.1 13.8 78 -13.3 8.1
21:30 1015 29.97 844 24.92 -10.1 13.8 77 -13.4 7.9
21:35 1015 29.97 844 24.92 -10.2 13.7 76 -13.6 7.5
21:40 1015 29.97 844 24.92 -10.1 13.8 74 -13.9 7
21:45 1015 29.97 844 24.92 -10.2 13.7 73 -14.1 6.7
21:50 1015 29.97 844 24.92 -10.2 13.6 72 -14.4 6.1
21:55 1015 29.97 844 24.92 -10.3 13.5 70 -14.8 5.4
22:00 1015 29.97 844 24.92 -10.4 13.3 70 -14.8 5.4
22:05 1015 29.97 844 24.92 -10.5 13.1 70 -14.9 5.2
22:10 1015 29.97 844 24.92 -10.7 12.8 71 -14.9 5.1
22:15 1015 29.97 844 24.92 -10.7 12.8 72 -14.8 5.3
22:20 1015 29.97 844 24.92 -10.7 12.8 71 -15 5.1
22:25 1015 29.97 844 24.92 -10.7 12.7 71 -15 5.1
22:30 1015 29.97 844 24.92 -10.8 12.6 71 -15.1 4.8
22:35 1015 29.97 844 24.92 -10.8 12.6 71 -15.1 4.8
22:40 1015 29.97 844 24.92 -10.8 12.6 71 -15.1 4.9
22:45 1015 29.97 844 24.92 -10.7 12.7 71 -15.1 4.9
22:50 1015 29.97 844 24.92 -10.7 12.7 70 -15.1 4.8
22:55 1015 29.97 844 24.92 -10.7 12.7 70 -15.1 4.8
23:00 1015 29.97 844 24.92 -10.7 12.7 70 -15.1 4.7
23:05 1015 29.97 844 24.92 -10.9 12.4 71 -15.2 4.7
23:10 1015 29.97 844 24.92 -10.9 12.4 71 -15.2 4.6
23:15 1015 29.97 844 24.92 -10.9 12.3 71 -15.2 4.7
23:20 1015 29.97 844 24.92 -11.1 12.1 72 -15.2 4.7
23:25 1015 29.97 844 24.92 -11.1 12.1 73 -15 5
23:30 1014 29.94 844 24.92 -11.1 12 73 -15.1 4.8
23:35 1014 29.94 844 24.92 -11.2 11.9 73 -15.1 4.9
23:40 1014 29.94 844 24.92 -11.2 11.8 73 -15.2 4.7
23:45 1014 29.94 844 24.92 -11.2 11.8 73 -15.2 4.7
23:50 1014 29.94 843 24.89 -11.3 11.7 73 -15.3 4.5
23:55 1014 29.94 843 24.89 -11.3 11.6 73 -15.2 4.6
24:00 1014 29.94 843 24.89 -11.4 11.5 74 -15.1 4.8